sensor_id;sensor_type;location;lat;lon;timestamp;temperature;humidity
65040;HTU21D;51606;45.000;38.612;2023-07-22T04:01:39;31.00;56.06
65040;HTU21D;51606;45.000;38.612;2023-07-22T04:04:06;31.83;55.24
65040;HTU21D;51606;45.000;38.612;2023-07-22T04:06:32;32.69;54.40
65040;HTU21D;51606;45.000;38.612;2023-07-22T04:08:59;33.42;53.68
65040;HTU21D;51606;45.000;38.612;2023-07-22T04:11:26;34.14;52.94
65040;HTU21D;51606;45.000;38.612;2023-07-22T04:13:53;34.83;52.20
65040;HTU21D;51606;45.000;38.612;2023-07-22T04:16:20;35.49;51.46
65040;HTU21D;51606;45.000;38.612;2023-07-22T04:18:46;36.04;50.81
65040;HTU21D;51606;45.000;38.612;2023-07-22T04:21:12;36.53;50.25
65040;HTU21D;51606;45.000;38.612;2023-07-22T04:23:39;36.95;49.76
65040;HTU21D;51606;45.000;38.612;2023-07-22T04:26:05;37.31;49.37
65040;HTU21D;51606;45.000;38.612;2023-07-22T04:28:34;37.85;48.54
65040;HTU21D;51606;45.000;38.612;2023-07-22T04:31:01;38.24;48.06
65040;HTU21D;51606;45.000;38.612;2023-07-22T04:33:27;38.79;47.30
65040;HTU21D;51606;45.000;38.612;2023-07-22T04:35:58;39.34;46.32
65040;HTU21D;51606;45.000;38.612;2023-07-22T04:38:25;39.81;45.81
65040;HTU21D;51606;45.000;38.612;2023-07-22T04:40:51;40.15;45.30
65040;HTU21D;51606;45.000;38.612;2023-07-22T04:43:18;40.28;45.08
65040;HTU21D;51606;45.000;38.612;2023-07-22T04:45:45;40.47;44.68
65040;HTU21D;51606;45.000;38.612;2023-07-22T04:48:20;40.62;44.25
65040;HTU21D;51606;45.000;38.612;2023-07-22T04:50:48;41.06;43.82
65040;HTU21D;51606;45.000;38.612;2023-07-22T04:53:16;41.48;42.99
65040;HTU21D;51606;45.000;38.612;2023-07-22T04:55:43;41.77;42.51
65040;HTU21D;51606;45.000;38.612;2023-07-22T04:58:09;41.78;42.45
65040;HTU21D;51606;45.000;38.612;2023-07-22T05:00:37;42.10;41.85
65040;HTU21D;51606;45.000;38.612;2023-07-22T05:03:04;42.30;41.55
65040;HTU21D;51606;45.000;38.612;2023-07-22T05:05:32;42.51;41.03
65040;HTU21D;51606;45.000;38.612;2023-07-22T05:07:58;42.28;41.24
65040;HTU21D;51606;45.000;38.612;2023-07-22T05:10:25;42.32;41.08
65040;HTU21D;51606;45.000;38.612;2023-07-22T05:12:51;42.37;40.83
65040;HTU21D;51606;45.000;38.612;2023-07-22T05:15:17;42.62;40.47
65040;HTU21D;51606;45.000;38.612;2023-07-22T05:17:44;43.10;39.76
65040;HTU21D;51606;45.000;38.612;2023-07-22T05:20:10;43.62;38.97
65040;HTU21D;51606;45.000;38.612;2023-07-22T05:22:39;43.59;38.78
65040;HTU21D;51606;45.000;38.612;2023-07-22T05:25:09;43.52;38.88
65040;HTU21D;51606;45.000;38.612;2023-07-22T05:27:36;43.49;38.86
65040;HTU21D;51606;45.000;38.612;2023-07-22T05:30:03;43.66;38.53
65040;HTU21D;51606;45.000;38.612;2023-07-22T05:32:29;43.94;38.05
65040;HTU21D;51606;45.000;38.612;2023-07-22T05:34:56;43.82;38.02
65040;HTU21D;51606;45.000;38.612;2023-07-22T05:37:23;43.95;37.82
65040;HTU21D;51606;45.000;38.612;2023-07-22T05:39:52;44.22;37.40
65040;HTU21D;51606;45.000;38.612;2023-07-22T05:42:18;44.43;37.14
65040;HTU21D;51606;45.000;38.612;2023-07-22T05:44:45;44.69;36.80
65040;HTU21D;51606;45.000;38.612;2023-07-22T05:47:11;44.75;36.42
65040;HTU21D;51606;45.000;38.612;2023-07-22T05:49:47;44.23;36.79
65040;HTU21D;51606;45.000;38.612;2023-07-22T05:52:13;44.48;36.57
65040;HTU21D;51606;45.000;38.612;2023-07-22T05:54:39;44.88;36.08
65040;HTU21D;51606;45.000;38.612;2023-07-22T05:57:07;45.27;35.55
65040;HTU21D;51606;45.000;38.612;2023-07-22T05:59:34;45.25;35.27
65040;HTU21D;51606;45.000;38.612;2023-07-22T06:02:04;45.18;35.24
65040;HTU21D;51606;45.000;38.612;2023-07-22T06:04:31;45.21;35.16
65040;HTU21D;51606;45.000;38.612;2023-07-22T06:07:00;44.98;35.09
65040;HTU21D;51606;45.000;38.612;2023-07-22T06:09:26;44.97;35.06
65040;HTU21D;51606;45.000;38.612;2023-07-22T06:11:52;45.01;34.88
65040;HTU21D;51606;45.000;38.612;2023-07-22T06:14:19;45.22;34.44
65040;HTU21D;51606;45.000;38.612;2023-07-22T06:16:45;45.42;34.11
65040;HTU21D;51606;45.000;38.612;2023-07-22T06:19:12;45.55;33.73
65040;HTU21D;51606;45.000;38.612;2023-07-22T06:21:38;45.36;33.77
65040;HTU21D;51606;45.000;38.612;2023-07-22T06:24:05;45.20;33.86
65040;HTU21D;51606;45.000;38.612;2023-07-22T06:26:32;45.02;33.83
65040;HTU21D;51606;45.000;38.612;2023-07-22T06:28:58;45.25;33.38
65040;HTU21D;51606;45.000;38.612;2023-07-22T06:31:24;45.16;33.34
65040;HTU21D;51606;45.000;38.612;2023-07-22T06:33:59;45.11;33.25
65040;HTU21D;51606;45.000;38.612;2023-07-22T06:36:26;45.32;33.02
65040;HTU21D;51606;45.000;38.612;2023-07-22T06:38:52;45.34;32.76
65040;HTU21D;51606;45.000;38.612;2023-07-22T06:41:22;45.06;32.86
65040;HTU21D;51606;45.000;38.612;2023-07-22T06:43:50;44.55;33.23
65040;HTU21D;51606;45.000;38.612;2023-07-22T06:46:17;43.58;33.89
65040;HTU21D;51606;45.000;38.612;2023-07-22T06:48:44;42.53;34.92
65040;HTU21D;51606;45.000;38.612;2023-07-22T06:51:10;41.99;35.50
65040;HTU21D;51606;45.000;38.612;2023-07-22T06:53:37;42.02;35.33
65040;HTU21D;51606;45.000;38.612;2023-07-22T06:56:03;42.22;34.79
65040;HTU21D;51606;45.000;38.612;2023-07-22T06:58:30;41.39;35.52
65040;HTU21D;51606;45.000;38.612;2023-07-22T07:00:56;41.02;36.19
65040;HTU21D;51606;45.000;38.612;2023-07-22T07:03:23;41.39;35.58
65040;HTU21D;51606;45.000;38.612;2023-07-22T07:05:53;40.96;35.73
65040;HTU21D;51606;45.000;38.612;2023-07-22T07:08:20;40.67;36.37
65040;HTU21D;51606;45.000;38.612;2023-07-22T07:10:47;40.93;36.01
65040;HTU21D;51606;45.000;38.612;2023-07-22T07:13:13;41.01;35.80
65040;HTU21D;51606;45.000;38.612;2023-07-22T07:15:40;41.12;35.84
65040;HTU21D;51606;45.000;38.612;2023-07-22T07:18:06;41.26;35.71
65040;HTU21D;51606;45.000;38.612;2023-07-22T07:20:33;41.30;35.77
65040;HTU21D;51606;45.000;38.612;2023-07-22T07:22:59;41.05;35.98
65040;HTU21D;51606;45.000;38.612;2023-07-22T07:25:25;40.84;36.31
65040;HTU21D;51606;45.000;38.612;2023-07-22T07:27:52;40.86;36.30
65040;HTU21D;51606;45.000;38.612;2023-07-22T08:11:37;38.66;39.20
65040;HTU21D;51606;45.000;38.612;2023-07-22T08:14:03;38.59;39.29
65040;HTU21D;51606;45.000;38.612;2023-07-22T08:16:31;38.81;38.88
65040;HTU21D;51606;45.000;38.612;2023-07-22T08:18:58;38.95;38.43
65040;HTU21D;51606;45.000;38.612;2023-07-22T08:21:25;39.07;38.24
65040;HTU21D;51606;45.000;38.612;2023-07-22T08:23:51;39.39;37.75
65040;HTU21D;51606;45.000;38.612;2023-07-22T08:26:18;39.58;37.34
65040;HTU21D;51606;45.000;38.612;2023-07-22T08:28:49;39.49;37.26
65040;HTU21D;51606;45.000;38.612;2023-07-22T08:31:24;39.40;37.24
65040;HTU21D;51606;45.000;38.612;2023-07-22T08:33:50;39.09;37.41
65040;HTU21D;51606;45.000;38.612;2023-07-22T08:36:16;38.73;37.79
65040;HTU21D;51606;45.000;38.612;2023-07-22T08:38:43;38.64;37.74
65040;HTU21D;51606;45.000;38.612;2023-07-22T08:41:14;38.51;37.84
65040;HTU21D;51606;45.000;38.612;2023-07-22T08:43:41;38.45;37.76
65040;HTU21D;51606;45.000;38.612;2023-07-22T08:46:12;38.54;37.46
65040;HTU21D;51606;45.000;38.612;2023-07-22T08:48:41;38.47;37.39
65040;HTU21D;51606;45.000;38.612;2023-07-22T08:51:17;38.40;37.53
65040;HTU21D;51606;45.000;38.612;2023-07-22T08:53:45;38.56;37.25
65040;HTU21D;51606;45.000;38.612;2023-07-22T08:56:12;38.53;37.20
65040;HTU21D;51606;45.000;38.612;2023-07-22T08:58:39;38.09;37.53
65040;HTU21D;51606;45.000;38.612;2023-07-22T09:01:08;37.79;37.99
65040;HTU21D;51606;45.000;38.612;2023-07-22T09:03:35;37.61;38.05
65040;HTU21D;51606;45.000;38.612;2023-07-22T09:06:04;37.32;38.20
65040;HTU21D;51606;45.000;38.612;2023-07-22T09:08:31;37.01;38.48
65040;HTU21D;51606;45.000;38.612;2023-07-22T09:10:57;36.82;38.83
65040;HTU21D;51606;45.000;38.612;2023-07-22T09:13:28;37.04;38.46
65040;HTU21D;51606;45.000;38.612;2023-07-22T09:15:57;37.26;38.19
65040;HTU21D;51606;45.000;38.612;2023-07-22T09:18:25;37.43;37.89
65040;HTU21D;51606;45.000;38.612;2023-07-22T09:20:52;37.52;37.88
65040;HTU21D;51606;45.000;38.612;2023-07-22T09:23:32;37.63;37.72
65040;HTU21D;51606;45.000;38.612;2023-07-22T09:26:09;37.20;38.01
65040;HTU21D;51606;45.000;38.612;2023-07-22T09:31:15;36.90;38.48
65040;HTU21D;51606;45.000;38.612;2023-07-22T09:33:41;36.38;39.06
65040;HTU21D;51606;45.000;38.612;2023-07-22T09:36:10;36.27;39.34
65040;HTU21D;51606;45.000;38.612;2023-07-22T09:38:37;36.40;39.11
65040;HTU21D;51606;45.000;38.612;2023-07-22T09:41:04;36.37;39.14
65040;HTU21D;51606;45.000;38.612;2023-07-22T09:43:30;36.36;39.12
65040;HTU21D;51606;45.000;38.612;2023-07-22T09:46:06;36.07;39.17
65040;HTU21D;51606;45.000;38.612;2023-07-22T09:48:43;35.71;39.55
65040;HTU21D;51606;45.000;38.612;2023-07-22T09:51:15;35.58;39.65
65040;HTU21D;51606;45.000;38.612;2023-07-22T09:53:59;35.40;39.90
65040;HTU21D;51606;45.000;38.612;2023-07-22T09:56:26;35.19;40.25
65040;HTU21D;51606;45.000;38.612;2023-07-22T09:58:52;35.21;40.27
65040;HTU21D;51606;45.000;38.612;2023-07-22T10:01:25;35.55;39.78
65040;HTU21D;51606;45.000;38.612;2023-07-22T10:03:54;35.79;39.65
65040;HTU21D;51606;45.000;38.612;2023-07-22T10:06:27;35.96;39.36
65040;HTU21D;51606;45.000;38.612;2023-07-22T10:09:06;35.80;39.59
65040;HTU21D;51606;45.000;38.612;2023-07-22T10:11:35;35.50;39.91
65040;HTU21D;51606;45.000;38.612;2023-07-22T10:14:05;35.27;40.12
65040;HTU21D;51606;45.000;38.612;2023-07-22T10:16:31;35.14;40.44
65040;HTU21D;51606;45.000;38.612;2023-07-22T10:19:00;35.19;40.41
65040;HTU21D;51606;45.000;38.612;2023-07-22T10:21:28;35.37;40.17
65040;HTU21D;51606;45.000;38.612;2023-07-22T10:23:55;35.59;39.95
65040;HTU21D;51606;45.000;38.612;2023-07-22T10:26:22;35.75;39.79
65040;HTU21D;51606;45.000;38.612;2023-07-22T10:28:48;35.74;39.83
65040;HTU21D;51606;45.000;38.612;2023-07-22T10:31:15;35.75;39.80
65040;HTU21D;51606;45.000;38.612;2023-07-22T10:33:48;35.63;40.01
65040;HTU21D;51606;45.000;38.612;2023-07-22T10:36:16;35.44;40.20
65040;HTU21D;51606;45.000;38.612;2023-07-22T10:38:43;35.31;40.30
65040;HTU21D;51606;45.000;38.612;2023-07-22T10:41:14;35.41;40.15
65040;HTU21D;51606;45.000;38.612;2023-07-22T10:43:54;35.49;40.06
65040;HTU21D;51606;45.000;38.612;2023-07-22T10:46:36;35.34;40.04
65040;HTU21D;51606;45.000;38.612;2023-07-22T10:49:13;35.23;40.23
65040;HTU21D;51606;45.000;38.612;2023-07-22T10:51:40;35.03;40.36
65040;HTU21D;51606;45.000;38.612;2023-07-22T10:54:13;34.99;40.36
65040;HTU21D;51606;45.000;38.612;2023-07-22T10:56:44;34.98;40.49
65040;HTU21D;51606;45.000;38.612;2023-07-22T10:59:11;34.92;40.52
65040;HTU21D;51606;45.000;38.612;2023-07-22T11:01:40;34.77;40.55
65040;HTU21D;51606;45.000;38.612;2023-07-22T11:04:24;34.41;41.04
65040;HTU21D;51606;45.000;38.612;2023-07-22T11:06:58;34.11;41.43
65040;HTU21D;51606;45.000;38.612;2023-07-22T11:23:22;34.60;40.66
65040;HTU21D;51606;45.000;38.612;2023-07-22T11:25:49;34.71;40.51
65040;HTU21D;51606;45.000;38.612;2023-07-22T11:28:15;34.59;40.67
65040;HTU21D;51606;45.000;38.612;2023-07-22T11:30:42;34.74;40.59
65040;HTU21D;51606;45.000;38.612;2023-07-22T11:33:08;34.79;40.52
65040;HTU21D;51606;45.000;38.612;2023-07-22T11:35:35;34.75;40.62
65040;HTU21D;51606;45.000;38.612;2023-07-22T11:38:03;34.53;40.93
65040;HTU21D;51606;45.000;38.612;2023-07-22T11:40:34;34.08;41.55
65040;HTU21D;51606;45.000;38.612;2023-07-22T11:43:00;33.63;42.13
65040;HTU21D;51606;45.000;38.612;2023-07-22T11:45:27;33.37;42.49
65040;HTU21D;51606;45.000;38.612;2023-07-22T11:47:53;33.49;42.37
65040;HTU21D;51606;45.000;38.612;2023-07-22T11:50:31;33.82;41.93
65040;HTU21D;51606;45.000;38.612;2023-07-22T11:52:58;33.94;41.74
65040;HTU21D;51606;45.000;38.612;2023-07-22T11:55:25;34.03;41.72
65040;HTU21D;51606;45.000;38.612;2023-07-22T11:57:54;34.07;41.81
65040;HTU21D;51606;45.000;38.612;2023-07-22T12:00:21;34.27;41.67
65040;HTU21D;51606;45.000;38.612;2023-07-22T12:02:48;34.46;41.41
65040;HTU21D;51606;45.000;38.612;2023-07-22T12:05:21;34.51;41.35
65040;HTU21D;51606;45.000;38.612;2023-07-22T12:07:48;34.61;41.22
65040;HTU21D;51606;45.000;38.612;2023-07-22T12:10:15;34.60;41.30
65040;HTU21D;51606;45.000;38.612;2023-07-22T12:12:43;34.57;41.39
65040;HTU21D;51606;45.000;38.612;2023-07-22T12:15:18;34.59;41.46
65040;HTU21D;51606;45.000;38.612;2023-07-22T12:20:17;34.62;41.55
65040;HTU21D;51606;45.000;38.612;2023-07-22T12:22:44;34.70;41.48
65040;HTU21D;51606;45.000;38.612;2023-07-22T12:25:11;34.62;41.55
65040;HTU21D;51606;45.000;38.612;2023-07-22T12:27:37;34.61;41.68
65040;HTU21D;51606;45.000;38.612;2023-07-22T12:30:05;34.73;41.60
65040;HTU21D;51606;45.000;38.612;2023-07-22T12:32:33;34.78;41.49
65040;HTU21D;51606;45.000;38.612;2023-07-22T12:35:00;34.75;41.49
65040;HTU21D;51606;45.000;38.612;2023-07-22T12:37:26;34.65;41.62
65040;HTU21D;51606;45.000;38.612;2023-07-22T12:39:54;34.54;41.75
65040;HTU21D;51606;45.000;38.612;2023-07-22T12:42:20;34.55;41.74
65040;HTU21D;51606;45.000;38.612;2023-07-22T12:44:47;34.55;41.69
65040;HTU21D;51606;45.000;38.612;2023-07-22T12:47:13;34.46;41.90
65040;HTU21D;51606;45.000;38.612;2023-07-22T12:49:40;34.44;41.99
65040;HTU21D;51606;45.000;38.612;2023-07-22T12:52:06;34.49;41.74
65040;HTU21D;51606;45.000;38.612;2023-07-22T12:54:38;34.40;41.80
65040;HTU21D;51606;45.000;38.612;2023-07-22T12:57:05;34.35;41.91
65040;HTU21D;51606;45.000;38.612;2023-07-22T12:59:31;34.29;41.97
65040;HTU21D;51606;45.000;38.612;2023-07-22T13:01:57;34.08;42.13
65040;HTU21D;51606;45.000;38.612;2023-07-22T13:04:24;33.88;42.48
65040;HTU21D;51606;45.000;38.612;2023-07-22T13:06:51;33.86;42.57
65040;HTU21D;51606;45.000;38.612;2023-07-22T13:09:18;33.92;42.58
65040;HTU21D;51606;45.000;38.612;2023-07-22T13:11:45;33.83;42.69
65040;HTU21D;51606;45.000;38.612;2023-07-22T13:14:12;33.56;43.15
65040;HTU21D;51606;45.000;38.612;2023-07-22T13:16:38;33.46;43.43
65040;HTU21D;51606;45.000;38.612;2023-07-22T13:19:05;33.53;43.24
65040;HTU21D;51606;45.000;38.612;2023-07-22T13:21:31;33.57;43.15
65040;HTU21D;51606;45.000;38.612;2023-07-22T13:23:58;33.60;43.09
65040;HTU21D;51606;45.000;38.612;2023-07-22T13:26:24;33.65;43.05
65040;HTU21D;51606;45.000;38.612;2023-07-22T13:28:51;33.79;42.88
65040;HTU21D;51606;45.000;38.612;2023-07-22T13:31:19;33.88;42.80
65040;HTU21D;51606;45.000;38.612;2023-07-22T13:33:46;33.96;42.74
65040;HTU21D;51606;45.000;38.612;2023-07-22T13:36:12;33.95;42.72
65040;HTU21D;51606;45.000;38.612;2023-07-22T13:38:39;33.86;42.92
65040;HTU21D;51606;45.000;38.612;2023-07-22T13:41:05;33.81;43.00
65040;HTU21D;51606;45.000;38.612;2023-07-22T13:43:31;33.73;43.13
65040;HTU21D;51606;45.000;38.612;2023-07-22T13:45:58;33.62;43.22
65040;HTU21D;51606;45.000;38.612;2023-07-22T13:48:24;33.60;43.24
65040;HTU21D;51606;45.000;38.612;2023-07-22T13:50:51;33.67;43.22
65040;HTU21D;51606;45.000;38.612;2023-07-22T13:53:17;33.74;43.17
65040;HTU21D;51606;45.000;38.612;2023-07-22T13:55:43;33.75;43.19
65040;HTU21D;51606;45.000;38.612;2023-07-22T13:58:10;33.64;43.32
65040;HTU21D;51606;45.000;38.612;2023-07-22T14:00:36;33.55;43.55
65040;HTU21D;51606;45.000;38.612;2023-07-22T14:03:03;33.45;43.74
65040;HTU21D;51606;45.000;38.612;2023-07-22T14:05:29;33.27;44.02
65040;HTU21D;51606;45.000;38.612;2023-07-22T14:07:57;33.02;44.41
65040;HTU21D;51606;45.000;38.612;2023-07-22T14:10:24;32.83;44.73
65040;HTU21D;51606;45.000;38.612;2023-07-22T14:12:50;32.73;44.96
65040;HTU21D;51606;45.000;38.612;2023-07-22T14:15:17;32.77;44.96
65040;HTU21D;51606;45.000;38.612;2023-07-22T14:17:43;32.84;44.90
65040;HTU21D;51606;45.000;38.612;2023-07-22T14:20:10;32.91;44.67
65040;HTU21D;51606;45.000;38.612;2023-07-22T14:22:41;32.97;44.54
65040;HTU21D;51606;45.000;38.612;2023-07-22T14:25:08;33.07;44.45
65040;HTU21D;51606;45.000;38.612;2023-07-22T14:27:37;33.17;44.35
65040;HTU21D;51606;45.000;38.612;2023-07-22T14:30:04;33.11;44.32
65040;HTU21D;51606;45.000;38.612;2023-07-22T14:32:31;32.98;44.47
65040;HTU21D;51606;45.000;38.612;2023-07-22T14:34:58;32.89;44.74
65040;HTU21D;51606;45.000;38.612;2023-07-22T14:37:24;32.84;45.03
65040;HTU21D;51606;45.000;38.612;2023-07-22T14:39:51;32.84;45.34
65040;HTU21D;51606;45.000;38.612;2023-07-22T14:42:21;32.77;45.67
65040;HTU21D;51606;45.000;38.612;2023-07-22T14:44:47;32.71;45.96
65040;HTU21D;51606;45.000;38.612;2023-07-22T14:47:13;32.66;46.29
65040;HTU21D;51606;45.000;38.612;2023-07-22T14:49:40;32.59;46.64
65040;HTU21D;51606;45.000;38.612;2023-07-22T15:03:29;32.32;47.44
65040;HTU21D;51606;45.000;38.612;2023-07-22T15:05:55;32.34;47.51
65040;HTU21D;51606;45.000;38.612;2023-07-22T15:08:22;32.37;47.59
65040;HTU21D;51606;45.000;38.612;2023-07-22T15:10:48;32.39;47.68
65040;HTU21D;51606;45.000;38.612;2023-07-22T15:13:15;32.39;47.73
65040;HTU21D;51606;45.000;38.612;2023-07-22T15:15:41;32.39;47.67
65040;HTU21D;51606;45.000;38.612;2023-07-22T15:18:07;32.38;47.71
65040;HTU21D;51606;45.000;38.612;2023-07-22T15:20:35;32.37;47.81
65040;HTU21D;51606;45.000;38.612;2023-07-22T15:23:01;32.38;47.78
65040;HTU21D;51606;45.000;38.612;2023-07-22T15:25:27;32.45;47.71
65040;HTU21D;51606;45.000;38.612;2023-07-22T15:27:54;32.53;47.63
65040;HTU21D;51606;45.000;38.612;2023-07-22T15:30:20;32.56;47.50
65040;HTU21D;51606;45.000;38.612;2023-07-22T15:32:47;32.59;47.36
65040;HTU21D;51606;45.000;38.612;2023-07-22T15:35:20;32.66;47.25
65040;HTU21D;51606;45.000;38.612;2023-07-22T15:37:47;32.69;47.16
65040;HTU21D;51606;45.000;38.612;2023-07-22T15:40:13;32.71;47.07
65040;HTU21D;51606;45.000;38.612;2023-07-22T15:42:40;32.70;47.12
65040;HTU21D;51606;45.000;38.612;2023-07-22T15:45:07;32.64;47.28
65040;HTU21D;51606;45.000;38.612;2023-07-22T15:47:34;32.56;47.43
65040;HTU21D;51606;45.000;38.612;2023-07-22T15:50:01;32.46;47.61
65040;HTU21D;51606;45.000;38.612;2023-07-22T15:52:27;32.35;47.76
65040;HTU21D;51606;45.000;38.612;2023-07-22T15:54:54;32.25;47.89
65040;HTU21D;51606;45.000;38.612;2023-07-22T15:57:20;32.17;47.99
65040;HTU21D;51606;45.000;38.612;2023-07-22T15:59:47;32.11;48.08
65040;HTU21D;51606;45.000;38.612;2023-07-22T16:02:13;32.04;48.14
65040;HTU21D;51606;45.000;38.612;2023-07-22T16:04:47;32.03;48.21
65040;HTU21D;51606;45.000;38.612;2023-07-22T16:07:14;32.02;47.95
65040;HTU21D;51606;45.000;38.612;2023-07-22T16:09:40;31.96;48.08
65040;HTU21D;51606;45.000;38.612;2023-07-22T16:12:07;31.94;48.12
65040;HTU21D;51606;45.000;38.612;2023-07-22T16:14:33;31.90;48.13
65040;HTU21D;51606;45.000;38.612;2023-07-22T16:17:01;31.85;48.17
65040;HTU21D;51606;45.000;38.612;2023-07-22T16:19:27;31.80;48.30
65040;HTU21D;51606;45.000;38.612;2023-07-22T16:21:54;31.70;48.48
65040;HTU21D;51606;45.000;38.612;2023-07-22T16:24:20;31.56;48.67
65040;HTU21D;51606;45.000;38.612;2023-07-22T16:26:46;31.42;48.87
65040;HTU21D;51606;45.000;38.612;2023-07-22T16:29:13;31.24;49.11
65040;HTU21D;51606;45.000;38.612;2023-07-22T16:31:39;31.05;49.40
65040;HTU21D;51606;45.000;38.612;2023-07-22T16:34:06;30.83;49.74
65040;HTU21D;51606;45.000;38.612;2023-07-22T16:36:32;30.62;50.08
65040;HTU21D;51606;45.000;38.612;2023-07-22T16:38:58;30.41;50.40
65040;HTU21D;51606;45.000;38.612;2023-07-22T16:41:25;30.24;50.68
65040;HTU21D;51606;45.000;38.612;2023-07-22T16:43:51;30.04;50.88
65040;HTU21D;51606;45.000;38.612;2023-07-22T16:46:19;29.86;51.19
65040;HTU21D;51606;45.000;38.612;2023-07-22T16:48:48;29.67;51.41
65040;HTU21D;51606;45.000;38.612;2023-07-22T16:51:14;29.51;51.60
65040;HTU21D;51606;45.000;38.612;2023-07-22T16:53:41;29.35;51.83
65040;HTU21D;51606;45.000;38.612;2023-07-22T16:56:07;29.19;52.03
65040;HTU21D;51606;45.000;38.612;2023-07-22T16:58:39;29.07;52.29
65040;HTU21D;51606;45.000;38.612;2023-07-22T17:01:05;28.91;52.35
65040;HTU21D;51606;45.000;38.612;2023-07-22T17:03:32;28.79;52.56
65040;HTU21D;51606;45.000;38.612;2023-07-22T17:05:58;28.67;52.72
65040;HTU21D;51606;45.000;38.612;2023-07-22T17:08:24;28.55;52.90
65040;HTU21D;51606;45.000;38.612;2023-07-22T17:10:51;28.44;53.10
65040;HTU21D;51606;45.000;38.612;2023-07-22T17:13:17;28.35;53.25
65040;HTU21D;51606;45.000;38.612;2023-07-22T17:15:44;28.29;53.35
65040;HTU21D;51606;45.000;38.612;2023-07-22T17:18:11;28.23;53.41
65040;HTU21D;51606;45.000;38.612;2023-07-22T17:20:38;28.16;53.52
65040;HTU21D;51606;45.000;38.612;2023-07-22T17:23:05;28.06;53.68
65040;HTU21D;51606;45.000;38.612;2023-07-22T17:25:31;27.97;53.81
65040;HTU21D;51606;45.000;38.612;2023-07-22T17:27:58;27.90;53.97
65040;HTU21D;51606;45.000;38.612;2023-07-22T17:30:24;27.80;54.09
65040;HTU21D;51606;45.000;38.612;2023-07-22T17:32:50;27.70;54.28
65040;HTU21D;51606;45.000;38.612;2023-07-22T17:35:18;27.61;54.44
65040;HTU21D;51606;45.000;38.612;2023-07-22T17:37:44;27.51;54.62
65040;HTU21D;51606;45.000;38.612;2023-07-22T17:40:12;27.41;54.79
65040;HTU21D;51606;45.000;38.612;2023-07-22T17:42:38;27.32;54.97
65040;HTU21D;51606;45.000;38.612;2023-07-22T17:45:05;27.21;55.18
65040;HTU21D;51606;45.000;38.612;2023-07-22T17:47:32;27.09;55.39
65040;HTU21D;51606;45.000;38.612;2023-07-22T17:49:58;27.00;55.57
65040;HTU21D;51606;45.000;38.612;2023-07-22T17:52:27;26.93;55.70
65040;HTU21D;51606;45.000;38.612;2023-07-22T17:54:53;26.85;55.81
65040;HTU21D;51606;45.000;38.612;2023-07-22T17:57:19;26.80;55.95
65040;HTU21D;51606;45.000;38.612;2023-07-22T17:59:46;26.73;56.07
65040;HTU21D;51606;45.000;38.612;2023-07-22T18:02:12;26.64;56.19
65040;HTU21D;51606;45.000;38.612;2023-07-22T18:04:38;26.57;56.36
65040;HTU21D;51606;45.000;38.612;2023-07-22T18:07:05;26.47;56.52
65040;HTU21D;51606;45.000;38.612;2023-07-22T18:09:31;26.40;56.66
65040;HTU21D;51606;45.000;38.612;2023-07-22T18:11:58;26.32;56.81
65040;HTU21D;51606;45.000;38.612;2023-07-22T18:14:24;26.24;56.97
65040;HTU21D;51606;45.000;38.612;2023-07-22T18:16:51;26.16;57.08
65040;HTU21D;51606;45.000;38.612;2023-07-22T18:19:17;26.07;57.20
65040;HTU21D;51606;45.000;38.612;2023-07-22T18:21:44;26.01;57.35
65040;HTU21D;51606;45.000;38.612;2023-07-22T18:24:10;25.93;57.49
65040;HTU21D;51606;45.000;38.612;2023-07-22T18:26:37;25.87;57.61
65040;HTU21D;51606;45.000;38.612;2023-07-22T18:29:03;25.80;57.72
65040;HTU21D;51606;45.000;38.612;2023-07-22T18:31:30;25.75;57.87
65040;HTU21D;51606;45.000;38.612;2023-07-22T18:33:56;25.67;58.00
65040;HTU21D;51606;45.000;38.612;2023-07-22T18:36:23;25.62;58.14
65040;HTU21D;51606;45.000;38.612;2023-07-22T18:38:49;25.58;58.23
65040;HTU21D;51606;45.000;38.612;2023-07-22T18:41:15;25.51;58.33
65040;HTU21D;51606;45.000;38.612;2023-07-22T18:43:49;25.45;58.46
65040;HTU21D;51606;45.000;38.612;2023-07-22T18:46:19;25.40;58.64
65040;HTU21D;51606;45.000;38.612;2023-07-22T18:48:47;25.33;58.65
65040;HTU21D;51606;45.000;38.612;2023-07-22T18:51:17;25.28;58.87
65040;HTU21D;51606;45.000;38.612;2023-07-22T18:53:43;25.22;58.87
65040;HTU21D;51606;45.000;38.612;2023-07-22T18:56:10;25.19;58.97
65040;HTU21D;51606;45.000;38.612;2023-07-22T18:58:36;25.14;59.08
65040;HTU21D;51606;45.000;38.612;2023-07-22T19:01:03;25.07;59.20
65040;HTU21D;51606;45.000;38.612;2023-07-22T19:03:29;25.04;59.32
65040;HTU21D;51606;45.000;38.612;2023-07-22T19:05:57;24.98;59.43
65040;HTU21D;51606;45.000;38.612;2023-07-22T19:08:25;24.94;59.56
65040;HTU21D;51606;45.000;38.612;2023-07-22T19:10:52;24.90;59.63
65040;HTU21D;51606;45.000;38.612;2023-07-22T19:13:19;24.86;59.74
65040;HTU21D;51606;45.000;38.612;2023-07-22T19:15:46;24.80;59.89
65040;HTU21D;51606;45.000;38.612;2023-07-22T19:18:14;24.75;59.97
65040;HTU21D;51606;45.000;38.612;2023-07-22T19:20:41;24.73;60.09
65040;HTU21D;51606;45.000;38.612;2023-07-22T19:23:07;24.66;60.25
65040;HTU21D;51606;45.000;38.612;2023-07-22T19:25:39;24.61;60.57
65040;HTU21D;51606;45.000;38.612;2023-07-22T19:28:05;24.54;60.60
65040;HTU21D;51606;45.000;38.612;2023-07-22T19:30:38;24.45;60.91
65040;HTU21D;51606;45.000;38.612;2023-07-22T19:33:05;24.35;60.99
65040;HTU21D;51606;45.000;38.612;2023-07-22T19:35:31;24.26;61.19
65040;HTU21D;51606;45.000;38.612;2023-07-22T19:37:58;24.16;61.38
65040;HTU21D;51606;45.000;38.612;2023-07-22T19:40:28;24.10;61.67
65040;HTU21D;51606;45.000;38.612;2023-07-22T19:42:54;24.04;61.63
65040;HTU21D;51606;45.000;38.612;2023-07-22T19:45:21;24.01;61.71
65040;HTU21D;51606;45.000;38.612;2023-07-22T19:47:47;24.00;61.75
65040;HTU21D;51606;45.000;38.612;2023-07-22T19:50:15;23.97;61.83
65040;HTU21D;51606;45.000;38.612;2023-07-22T19:52:41;23.90;61.98
65040;HTU21D;51606;45.000;38.612;2023-07-22T19:55:08;23.84;62.15
65040;HTU21D;51606;45.000;38.612;2023-07-22T19:57:35;23.79;62.25
65040;HTU21D;51606;45.000;38.612;2023-07-22T20:00:01;23.75;62.34
65040;HTU21D;51606;45.000;38.612;2023-07-22T20:02:38;23.71;62.41
65040;HTU21D;51606;45.000;38.612;2023-07-22T20:05:05;23.69;62.48
65040;HTU21D;51606;45.000;38.612;2023-07-22T20:07:32;23.65;62.58
65040;HTU21D;51606;45.000;38.612;2023-07-22T20:09:58;23.61;62.68
65040;HTU21D;51606;45.000;38.612;2023-07-22T20:12:24;23.55;62.84
65040;HTU21D;51606;45.000;38.612;2023-07-22T20:14:51;23.50;62.99
65040;HTU21D;51606;45.000;38.612;2023-07-22T20:17:17;23.45;63.12